Time;durP1;ratioP1;P1;durP2;ratioP2;P2;SDS_P1;SDS_P2;PMS_P1;PMS_P2;Temp;Humidity;BMP_temperature;BMP_pressure;BME280_temperature;BME280_humidity;BME280_pressure;Samples;Min_cycle;Max_cycle;Signal;HPM_P1;HPM_P2
2023/09/22 00:00:41;;;;;;;6.57;3.97;;;;;;;;;;4997688;28;20475;-71
2023/09/22 00:03:07;;;;;;;7.13;4.00;;;;;;;;;;4973154;28;20040;-71
2023/09/22 00:05:33;;;;;;;8.70;4.10;;;;;;;;;;4978045;28;20062;-71
2023/09/22 00:07:58;;;;;;;11.77;4.05;;;;;;;;;;4973093;28;20066;-71
2023/09/22 00:10:24;;;;;;;6.60;3.67;;;;;;;;;;4972325;28;20043;-71
2023/09/22 00:12:49;;;;;;;8.30;4.03;;;;;;;;;;4976095;28;20053;-71
2023/09/22 00:15:15;;;;;;;6.25;3.53;;;;;;;;;;4980856;28;20069;-71
2023/09/22 00:17:41;;;;;;;10.82;4.55;;;;;;;;;;4976599;28;20033;-70
2023/09/22 00:20:08;;;;;;;12.68;5.25;;;;;;;;;;4971795;28;20042;-70
2023/09/22 00:22:34;;;;;;;8.90;4.70;;;;;;;;;;4976956;28;20069;-71
2023/09/22 00:25:00;;;;;;;9.55;4.50;;;;;;;;;;4977472;28;20586;-70
2023/09/22 00:27:26;;;;;;;10.18;4.25;;;;;;;;;;4975872;28;20043;-70
2023/09/22 00:29:51;;;;;;;10.48;4.43;;;;;;;;;;4982094;28;20038;-70
2023/09/22 00:32:16;;;;;;;6.03;3.78;;;;;;;;;;4976218;28;20542;-70
2023/09/22 00:34:42;;;;;;;9.40;4.53;;;;;;;;;;4977699;28;20038;-70
2023/09/22 00:37:07;;;;;;;8.80;4.13;;;;;;;;;;4975732;28;20035;-71
2023/09/22 00:39:33;;;;;;;12.73;5.00;;;;;;;;;;4976286;28;20046;-71
2023/09/22 00:42:01;;;;;;;11.90;4.70;;;;;;;;;;4976086;28;20047;-71
2023/09/22 00:44:26;;;;;;;9.30;3.85;;;;;;;;;;4972015;28;20043;-70
2023/09/22 00:46:52;;;;;;;7.07;4.50;;;;;;;;;;4978292;28;20053;-70
2023/09/22 00:49:17;;;;;;;8.25;4.68;;;;;;;;;;4982214;28;20038;-70
2023/09/22 00:51:44;;;;;;;11.13;3.97;;;;;;;;;;4988948;28;20041;-70
2023/09/22 00:54:10;;;;;;;7.00;3.78;;;;;;;;;;4976201;28;20542;-70
2023/09/22 00:56:36;;;;;;;9.85;3.53;;;;;;;;;;4975539;28;20022;-70
2023/09/22 00:59:01;;;;;;;5.50;2.75;;;;;;;;;;4977384;28;20064;-70
2023/09/22 01:01:27;;;;;;;6.60;3.40;;;;;;;;;;4972456;28;20066;-70
2023/09/22 01:03:52;;;;;;;10.73;3.50;;;;;;;;;;4974631;28;20042;-71
2023/09/22 01:06:18;;;;;;;6.05;3.17;;;;;;;;;;4973167;28;20035;-70
2023/09/22 01:08:44;;;;;;;4.93;2.78;;;;;;;;;;4974895;28;20398;-70
2023/09/22 01:11:09;;;;;;;6.75;2.63;;;;;;;;;;4971860;28;20050;-70
2023/09/22 01:13:35;;;;;;;3.25;2.50;;;;;;;;;;4974467;28;20500;-70
2023/09/22 01:16:01;;;;;;;8.18;2.63;;;;;;;;;;4968909;28;20035;-70
2023/09/22 01:18:26;;;;;;;8.10;2.60;;;;;;;;;;4972192;28;20148;-70
2023/09/22 01:20:54;;;;;;;5.00;2.30;;;;;;;;;;4970351;28;20474;-70
2023/09/22 01:23:20;;;;;;;6.47;2.10;;;;;;;;;;4974369;28;20144;-70
2023/09/22 01:25:46;;;;;;;6.60;2.00;;;;;;;;;;4970830;28;20100;-70
2023/09/22 01:28:12;;;;;;;6.65;2.30;;;;;;;;;;4972589;28;20038;-70
2023/09/22 01:30:42;;;;;;;5.55;2.08;;;;;;;;;;4973852;28;20046;-70
2023/09/22 01:33:08;;;;;;;3.13;2.00;;;;;;;;;;4967815;28;20037;-70
2023/09/22 01:35:35;;;;;;;5.20;2.10;;;;;;;;;;4972368;28;20027;-70
2023/09/22 01:38:16;;;;;;;4.53;1.77;;;;;;;;;;4976445;28;20057;-70
2023/09/22 01:40:42;;;;;;;5.72;1.88;;;;;;;;;;4975684;28;20078;-70
2023/09/22 01:43:08;;;;;;;3.22;1.80;;;;;;;;;;4978213;28;20042;-70
2023/09/22 01:45:33;;;;;;;3.67;1.52;;;;;;;;;;4972690;28;20047;-70
2023/09/22 01:47:59;;;;;;;2.78;1.80;;;;;;;;;;4981074;28;20081;-70
2023/09/22 01:50:25;;;;;;;6.53;1.90;;;;;;;;;;4972869;28;20043;-70
2023/09/22 01:52:52;;;;;;;3.00;1.60;;;;;;;;;;4973865;28;20759;-71
2023/09/22 01:55:17;;;;;;;4.55;1.73;;;;;;;;;;4978369;28;20655;-70
2023/09/22 01:57:47;;;;;;;8.43;1.92;;;;;;;;;;4974804;28;20034;-70
2023/09/22 02:00:13;;;;;;;5.82;1.70;;;;;;;;;;4971545;28;20026;-70
2023/09/22 02:02:42;;;;;;;2.60;1.73;;;;;;;;;;4975834;28;20081;-70
2023/09/22 02:05:11;;;;;;;2.83;1.52;;;;;;;;;;4972418;28;20125;-69
2023/09/22 02:07:38;;;;;;;3.45;1.80;;;;;;;;;;4969510;28;20138;-70
2023/09/22 02:10:04;;;;;;;6.45;1.55;;;;;;;;;;4977018;28;20041;-70
2023/09/22 02:12:30;;;;;;;2.53;1.58;;;;;;;;;;4975441;28;20050;-70
2023/09/22 02:14:56;;;;;;;2.45;1.70;;;;;;;;;;4983795;28;20507;-70
2023/09/22 02:17:22;;;;;;;2.88;1.40;;;;;;;;;;4979285;28;20030;-70
2023/09/22 02:19:48;;;;;;;5.45;1.52;;;;;;;;;;4973859;28;20963;-70
2023/09/22 02:22:13;;;;;;;3.10;1.60;;;;;;;;;;4975465;28;20283;-70
2023/09/22 02:24:39;;;;;;;2.58;1.40;;;;;;;;;;4973100;28;20034;-70
2023/09/22 02:27:04;;;;;;;7.13;2.00;;;;;;;;;;4972531;28;20472;-70
2023/09/22 02:29:30;;;;;;;5.97;1.95;;;;;;;;;;4975015;28;20026;-70
2023/09/22 02:31:55;;;;;;;3.03;1.75;;;;;;;;;;4975281;28;20046;-70
2023/09/22 02:34:21;;;;;;;5.43;1.55;;;;;;;;;;4975451;28;20536;-70
2023/09/22 02:36:50;;;;;;;1.85;1.20;;;;;;;;;;4972478;28;20043;-70
2023/09/22 02:39:16;;;;;;;4.65;1.50;;;;;;;;;;4977864;28;20434;-70
2023/09/22 02:41:42;;;;;;;4.82;1.92;;;;;;;;;;4976078;28;20057;-70
2023/09/22 02:44:08;;;;;;;3.63;1.70;;;;;;;;;;4975866;28;20760;-70
2023/09/22 02:46:37;;;;;;;5.88;1.58;;;;;;;;;;4974957;28;20266;-70
2023/09/22 02:49:03;;;;;;;5.28;1.92;;;;;;;;;;4970637;28;20042;-70
2023/09/22 02:51:29;;;;;;;6.38;1.90;;;;;;;;;;4965679;28;20034;-70
2023/09/22 02:53:55;;;;;;;2.95;1.48;;;;;;;;;;4975534;28;20026;-70
2023/09/22 02:56:20;;;;;;;4.65;1.40;;;;;;;;;;4976882;28;20034;-70
2023/09/22 02:58:46;;;;;;;4.53;1.30;;;;;;;;;;4975018;28;20050;-70
2023/09/22 03:01:12;;;;;;;2.95;1.40;;;;;;;;;;4974867;28;20081;-70
2023/09/22 03:03:43;;;;;;;4.47;1.58;;;;;;;;;;4974903;28;20511;-70
2023/09/22 03:06:12;;;;;;;3.90;1.33;;;;;;;;;;4972465;28;20034;-70
2023/09/22 03:08:39;;;;;;;2.22;1.40;;;;;;;;;;4973308;28;20022;-70
2023/09/22 03:11:05;;;;;;;4.45;1.27;;;;;;;;;;4972602;28;20038;-70
2023/09/22 03:13:31;;;;;;;3.45;1.65;;;;;;;;;;4974847;28;20475;-70
2023/09/22 03:15:57;;;;;;;2.78;1.20;;;;;;;;;;4971860;28;20026;-70
2023/09/22 03:18:23;;;;;;;4.07;1.50;;;;;;;;;;4978518;28;20124;-70
2023/09/22 03:20:49;;;;;;;2.85;1.30;;;;;;;;;;4995724;28;20077;-70
2023/09/22 03:23:15;;;;;;;3.40;1.42;;;;;;;;;;4970934;28;20132;-70
2023/09/22 03:25:40;;;;;;;4.00;1.50;;;;;;;;;;4972409;28;20530;-70
2023/09/22 03:28:06;;;;;;;2.88;1.30;;;;;;;;;;4973747;28;20580;-70
2023/09/22 03:30:31;;;;;;;2.85;1.23;;;;;;;;;;4972645;28;20534;-70
2023/09/22 03:32:58;;;;;;;2.63;1.20;;;;;;;;;;4976370;28;20035;-70
2023/09/22 03:35:25;;;;;;;3.28;1.40;;;;;;;;;;4975220;28;20065;-70
2023/09/22 03:37:52;;;;;;;2.45;1.50;;;;;;;;;;4991369;28;20057;-70
2023/09/22 03:40:23;;;;;;;6.15;1.48;;;;;;;;;;4991653;28;20035;-71
2023/09/22 03:42:48;;;;;;;2.85;1.23;;;;;;;;;;4985675;28;20042;-71
2023/09/22 03:45:13;;;;;;;5.43;1.63;;;;;;;;;;4976730;28;20031;-71
2023/09/22 03:47:40;;;;;;;4.03;1.40;;;;;;;;;;4980723;28;20030;-71
2023/09/22 03:50:06;;;;;;;4.82;1.50;;;;;;;;;;4975261;28;20046;-71
2023/09/22 03:52:31;;;;;;;2.08;1.00;;;;;;;;;;4976526;28;20041;-70
2023/09/22 03:54:57;;;;;;;4.45;1.50;;;;;;;;;;4978149;28;20030;-71
2023/09/22 03:57:22;;;;;;;3.72;1.20;;;;;;;;;;4978502;28;20061;-71
2023/09/22 03:59:48;;;;;;;3.92;1.50;;;;;;;;;;4998059;28;20034;-70
2023/09/22 04:02:14;;;;;;;2.33;1.40;;;;;;;;;;4977057;28;20034;-71
2023/09/22 04:04:39;;;;;;;2.25;1.10;;;;;;;;;;4973000;28;20039;-71
2023/09/22 04:07:04;;;;;;;2.75;1.30;;;;;;;;;;4975152;28;20046;-71
2023/09/22 04:09:31;;;;;;;3.92;1.42;;;;;;;;;;4974609;28;20084;-70
2023/09/22 04:11:57;;;;;;;2.17;1.02;;;;;;;;;;4978037;28;20668;-71
2023/09/22 04:14:23;;;;;;;3.13;1.00;;;;;;;;;;4974993;28;20034;-71
2023/09/22 04:16:48;;;;;;;3.55;1.20;;;;;;;;;;4979336;28;20042;-71
2023/09/22 04:19:14;;;;;;;5.10;1.30;;;;;;;;;;4974731;28;20264;-71
2023/09/22 04:21:43;;;;;;;2.00;1.13;;;;;;;;;;4978103;28;20519;-71
2023/09/22 04:24:11;;;;;;;2.22;1.13;;;;;;;;;;4970763;28;20443;-71
2023/09/22 04:26:42;;;;;;;4.07;1.15;;;;;;;;;;4977447;28;20030;-71
2023/09/22 04:29:09;;;;;;;1.75;1.13;;;;;;;;;;4973821;28;20594;-71
2023/09/22 04:31:34;;;;;;;4.00;1.15;;;;;;;;;;4970160;28;20061;-71
2023/09/22 04:34:01;;;;;;;2.03;1.10;;;;;;;;;;4977799;28;20519;-71
2023/09/22 04:36:26;;;;;;;1.63;1.15;;;;;;;;;;4976075;28;20034;-71
2023/09/22 04:38:52;;;;;;;2.35;1.17;;;;;;;;;;4976807;28;20036;-71
2023/09/22 04:41:19;;;;;;;1.95;1.00;;;;;;;;;;4977054;28;20555;-71
2023/09/22 04:43:46;;;;;;;3.15;1.30;;;;;;;;;;4970246;28;20572;-71
2023/09/22 04:46:11;;;;;;;5.40;1.27;;;;;;;;;;4977482;28;20520;-71
2023/09/22 04:48:37;;;;;;;2.20;1.20;;;;;;;;;;4977113;28;20030;-71
2023/09/22 04:51:04;;;;;;;3.28;1.10;;;;;;;;;;4975394;28;20722;-70
2023/09/22 04:53:29;;;;;;;4.10;0.98;;;;;;;;;;4981649;28;20038;-71
2023/09/22 04:56:00;;;;;;;2.88;1.10;;;;;;;;;;4982062;28;20027;-71
2023/09/22 04:58:26;;;;;;;1.67;0.88;;;;;;;;;;4974973;28;20099;-71
2023/09/22 05:00:55;;;;;;;2.22;0.90;;;;;;;;;;4976473;28;20530;-70
2023/09/22 05:03:21;;;;;;;2.08;1.20;;;;;;;;;;4982535;28;20093;-71
2023/09/22 05:05:46;;;;;;;2.80;1.05;;;;;;;;;;5006839;28;20057;-71
2023/09/22 05:08:11;;;;;;;1.33;1.00;;;;;;;;;;4973806;28;20416;-71
2023/09/22 05:10:37;;;;;;;2.92;1.00;;;;;;;;;;4976183;28;20034;-71
2023/09/22 05:13:03;;;;;;;1.38;0.90;;;;;;;;;;4972529;28;20472;-71
2023/09/22 05:15:29;;;;;;;4.07;1.20;;;;;;;;;;4998818;28;20609;-71
2023/09/22 05:17:55;;;;;;;4.00;1.17;;;;;;;;;;4976862;28;20815;-71
2023/09/22 05:20:20;;;;;;;3.40;1.10;;;;;;;;;;4974787;28;20045;-71
2023/09/22 05:22:46;;;;;;;4.68;1.10;;;;;;;;;;4972079;28;20042;-71
2023/09/22 05:25:13;;;;;;;3.08;1.02;;;;;;;;;;4971708;28;20516;-71
2023/09/22 05:27:40;;;;;;;3.97;0.88;;;;;;;;;;4975500;28;20046;-71
2023/09/22 05:30:07;;;;;;;1.70;1.05;;;;;;;;;;4973570;28;20035;-71
2023/09/22 05:32:33;;;;;;;1.77;1.00;;;;;;;;;;4977976;28;20018;-71
2023/09/22 05:34:59;;;;;;;7.38;1.55;;;;;;;;;;4973688;28;20039;-70
2023/09/22 05:37:25;;;;;;;1.92;1.02;;;;;;;;;;4973141;28;20121;-71
2023/09/22 05:39:51;;;;;;;2.25;1.00;;;;;;;;;;4989168;28;20120;-71
2023/09/22 05:42:17;;;;;;;3.28;1.02;;;;;;;;;;5000374;28;20042;-71
2023/09/22 05:44:43;;;;;;;2.47;1.23;;;;;;;;;;4975563;28;20037;-71
2023/09/22 05:47:09;;;;;;;2.05;1.08;;;;;;;;;;4977015;28;20112;-71
2023/09/22 05:49:34;;;;;;;2.95;1.17;;;;;;;;;;4975710;28;20073;-71
2023/09/22 05:52:00;;;;;;;2.78;1.10;;;;;;;;;;4969915;28;20397;-71
2023/09/22 05:54:26;;;;;;;2.80;1.40;;;;;;;;;;4970945;28;20038;-71
2023/09/22 05:56:51;;;;;;;4.07;1.30;;;;;;;;;;4960247;28;20101;-71
2023/09/22 05:59:17;;;;;;;3.30;1.20;;;;;;;;;;4969696;28;20070;-71
2023/09/22 06:01:42;;;;;;;2.45;1.38;;;;;;;;;;4995663;28;20108;-71
2023/09/22 06:04:09;;;;;;;3.45;1.50;;;;;;;;;;4974306;28;20038;-71
2023/09/22 06:06:35;;;;;;;2.85;1.38;;;;;;;;;;4973513;28;20049;-71
2023/09/22 06:09:00;;;;;;;5.47;1.30;;;;;;;;;;4976463;28;20026;-71
2023/09/22 06:11:26;;;;;;;3.75;1.25;;;;;;;;;;4977642;28;20050;-71
2023/09/22 06:13:52;;;;;;;3.33;1.15;;;;;;;;;;4971997;28;20526;-71
2023/09/22 06:16:18;;;;;;;1.60;1.02;;;;;;;;;;4951885;28;20273;-71
2023/09/22 06:18:44;;;;;;;3.03;1.30;;;;;;;;;;4977311;28;20128;-71
2023/09/22 06:21:10;;;;;;;4.60;1.38;;;;;;;;;;4952964;28;20347;-71
2023/09/22 06:23:36;;;;;;;2.90;1.27;;;;;;;;;;4950810;28;20840;-71
2023/09/22 06:26:05;;;;;;;4.03;1.38;;;;;;;;;;4963508;28;20038;-71
2023/09/22 06:28:31;;;;;;;3.53;1.42;;;;;;;;;;4968597;28;20406;-71
2023/09/22 06:31:01;;;;;;;2.47;1.40;;;;;;;;;;4951654;28;20133;-71
2023/09/22 06:33:27;;;;;;;3.05;0.90;;;;;;;;;;4957520;28;20054;-70
2023/09/22 06:36:11;;;;;;;5.40;1.50;;;;;;;;;;4963201;28;20412;-71
2023/09/22 06:38:37;;;;;;;2.58;1.42;;;;;;;;;;4979450;28;20574;-71
2023/09/22 06:41:04;;;;;;;4.65;1.30;;;;;;;;;;4968243;28;20050;-71
2023/09/22 06:43:30;;;;;;;4.07;1.58;;;;;;;;;;4969956;28;20031;-71
2023/09/22 06:45:58;;;;;;;3.85;1.17;;;;;;;;;;4975206;28;20042;-71
2023/09/22 06:48:27;;;;;;;2.58;1.30;;;;;;;;;;4975053;28;21103;-71
2023/09/22 06:50:54;;;;;;;1.85;1.30;;;;;;;;;;4974451;28;20053;-71
2023/09/22 06:53:21;;;;;;;6.15;1.75;;;;;;;;;;4971999;28;20049;-71
2023/09/22 06:55:48;;;;;;;2.58;1.58;;;;;;;;;;4975033;28;20093;-71
2023/09/22 06:58:13;;;;;;;3.13;1.25;;;;;;;;;;4971164;28;20054;-71
2023/09/22 07:00:39;;;;;;;3.70;1.55;;;;;;;;;;4973214;28;20039;-71
2023/09/22 07:03:05;;;;;;;6.13;1.30;;;;;;;;;;4972535;28;20212;-71
2023/09/22 07:05:31;;;;;;;2.45;1.13;;;;;;;;;;4975247;28;20030;-71
2023/09/22 07:07:57;;;;;;;3.58;1.30;;;;;;;;;;4971935;28;20128;-71
2023/09/22 07:10:23;;;;;;;1.60;1.25;;;;;;;;;;4978820;28;20042;-71
2023/09/22 07:12:49;;;;;;;6.38;1.40;;;;;;;;;;4973433;28;20046;-71
2023/09/22 07:15:14;;;;;;;3.30;1.30;;;;;;;;;;4972668;28;20049;-71
2023/09/22 07:17:43;;;;;;;2.63;1.52;;;;;;;;;;4976728;28;20041;-71
2023/09/22 07:20:12;;;;;;;2.15;1.20;;;;;;;;;;4977227;28;20834;-71
2023/09/22 07:22:38;;;;;;;3.17;1.50;;;;;;;;;;4975354;28;20464;-70
2023/09/22 07:25:04;;;;;;;4.30;1.45;;;;;;;;;;4979573;28;20558;-71
2023/09/22 07:27:29;;;;;;;2.20;1.00;;;;;;;;;;4978984;28;20038;-71
2023/09/22 07:29:55;;;;;;;3.72;1.23;;;;;;;;;;4973172;28;20034;-71
2023/09/22 07:32:20;;;;;;;2.03;1.25;;;;;;;;;;4969100;28;20035;-71
2023/09/22 07:34:48;;;;;;;2.35;1.10;;;;;;;;;;4981512;28;20599;-71
2023/09/22 07:37:13;;;;;;;4.05;1.30;;;;;;;;;;4974617;28;20523;-70
2023/09/22 07:39:39;;;;;;;2.50;1.00;;;;;;;;;;4983075;28;20496;-70
2023/09/22 07:42:05;;;;;;;2.95;1.10;;;;;;;;;;4973735;28;20046;-70
2023/09/22 07:44:31;;;;;;;2.78;1.23;;;;;;;;;;4986285;28;20096;-70
2023/09/22 07:46:58;;;;;;;2.33;1.10;;;;;;;;;;4973241;28;20460;-70
2023/09/22 07:49:25;;;;;;;3.00;1.30;;;;;;;;;;4976426;28;20035;-70
2023/09/22 07:51:51;;;;;;;3.80;1.27;;;;;;;;;;4978355;28;20042;-70
2023/09/22 07:54:17;;;;;;;2.20;0.90;;;;;;;;;;4992088;28;20034;-70
2023/09/22 07:56:42;;;;;;;2.85;0.80;;;;;;;;;;4994687;28;20029;-70
2023/09/22 07:59:07;;;;;;;1.75;1.05;;;;;;;;;;4984909;28;20035;-70
2023/09/22 08:01:33;;;;;;;2.45;1.10;;;;;;;;;;4972394;28;20049;-71
2023/09/22 08:03:58;;;;;;;1.67;1.33;;;;;;;;;;4985368;28;20077;-70
2023/09/22 08:06:24;;;;;;;1.50;1.00;;;;;;;;;;4983391;28;20046;-71
2023/09/22 08:08:49;;;;;;;5.13;1.30;;;;;;;;;;4982504;28;20050;-71
2023/09/22 08:11:18;;;;;;;1.73;1.08;;;;;;;;;;4984776;28;20138;-70
2023/09/22 08:13:45;;;;;;;2.42;1.25;;;;;;;;;;4976151;28;20046;-71
2023/09/22 08:16:12;;;;;;;4.32;1.45;;;;;;;;;;4972568;28;20716;-71
2023/09/22 08:18:40;;;;;;;1.30;1.20;;;;;;;;;;4976830;28;20549;-71
2023/09/22 08:21:06;;;;;;;2.95;1.00;;;;;;;;;;4971911;28;20110;-71
2023/09/22 08:23:31;;;;;;;2.95;1.10;;;;;;;;;;4993224;28;20110;-72
2023/09/22 08:25:57;;;;;;;2.97;1.10;;;;;;;;;;4980392;28;20067;-73
2023/09/22 08:28:23;;;;;;;3.80;1.38;;;;;;;;;;4969295;28;20501;-73
2023/09/22 08:30:49;;;;;;;4.07;1.65;;;;;;;;;;4970485;28;20524;-72
2023/09/22 08:33:14;;;;;;;3.67;1.20;;;;;;;;;;4993283;28;20041;-73
2023/09/22 08:35:40;;;;;;;3.70;1.10;;;;;;;;;;4976925;28;20033;-73
2023/09/22 08:38:06;;;;;;;3.17;1.20;;;;;;;;;;4979646;28;20042;-73
2023/09/22 08:40:32;;;;;;;7.68;1.13;;;;;;;;;;4971958;28;20113;-73
2023/09/22 08:43:00;;;;;;;2.05;0.90;;;;;;;;;;4980933;28;20069;-73
2023/09/22 08:45:26;;;;;;;2.17;1.00;;;;;;;;;;4977894;28;20043;-73
2023/09/22 08:47:51;;;;;;;2.72;1.10;;;;;;;;;;4981630;28;20033;-73
2023/09/22 08:50:18;;;;;;;2.58;1.23;;;;;;;;;;4981399;28;20046;-73
2023/09/22 08:52:52;;;;;;;2.45;1.00;;;;;;;;;;4976141;28;20049;-73
2023/09/22 08:55:18;;;;;;;2.30;1.25;;;;;;;;;;4976449;28;20037;-72
2023/09/22 08:57:46;;;;;;;7.07;1.10;;;;;;;;;;4975150;28;20034;-72
2023/09/22 09:00:23;;;;;;;2.30;1.00;;;;;;;;;;4971234;28;20033;-72
2023/09/22 09:02:50;;;;;;;4.53;1.15;;;;;;;;;;4975213;28;20048;-72
2023/09/22 09:05:29;;;;;;;2.30;1.15;;;;;;;;;;4974666;28;20042;-72
2023/09/22 09:08:09;;;;;;;3.75;0.90;;;;;;;;;;4973963;28;20549;-73
2023/09/22 09:10:35;;;;;;;2.55;1.10;;;;;;;;;;4971533;28;20168;-70
2023/09/22 09:13:02;;;;;;;1.60;1.00;;;;;;;;;;4970984;28;20544;-70
2023/09/22 09:15:48;;;;;;;4.07;0.95;;;;;;;;;;4976932;28;20050;-70
2023/09/22 09:18:19;;;;;;;2.67;1.10;;;;;;;;;;4980774;28;20026;-69
2023/09/22 09:20:47;;;;;;;1.10;1.00;;;;;;;;;;4982990;28;20050;-70
2023/09/22 09:23:17;;;;;;;3.03;1.20;;;;;;;;;;4979563;28;20049;-70
2023/09/22 09:25:48;;;;;;;2.30;1.20;;;;;;;;;;4974141;28;20173;-69
2023/09/22 09:28:15;;;;;;;4.88;1.30;;;;;;;;;;4967228;28;20038;-70
2023/09/22 09:30:51;;;;;;;1.85;1.35;;;;;;;;;;4973285;28;20081;-70
2023/09/22 09:33:20;;;;;;;3.88;1.58;;;;;;;;;;4973201;28;20072;-70
2023/09/22 09:35:45;;;;;;;3.25;1.40;;;;;;;;;;4974947;28;20574;-69
2023/09/22 09:38:13;;;;;;;1.92;1.10;;;;;;;;;;4976895;28;20031;-70
2023/09/22 09:40:38;;;;;;;1.67;1.20;;;;;;;;;;4975452;28;20062;-69
2023/09/22 09:43:11;;;;;;;2.70;1.00;;;;;;;;;;4972911;28;20035;-70
2023/09/22 09:45:57;;;;;;;4.85;1.20;;;;;;;;;;4977175;28;20037;-70
2023/09/22 09:48:24;;;;;;;4.95;2.00;;;;;;;;;;4973735;28;20117;-70
2023/09/22 09:50:53;;;;;;;2.63;0.90;;;;;;;;;;4974063;28;20034;-71
2023/09/22 09:53:26;;;;;;;1.52;1.17;;;;;;;;;;4972543;28;20047;-70
2023/09/22 09:55:56;;;;;;;2.17;1.10;;;;;;;;;;4980418;28;20045;-70
2023/09/22 09:58:25;;;;;;;10.32;3.92;;;;;;;;;;4971910;28;20066;-70
2023/09/22 10:00:51;;;;;;;3.03;1.50;;;;;;;;;;4973658;28;20105;-70
2023/09/22 10:03:19;;;;;;;4.10;1.40;;;;;;;;;;4973731;28;20030;-70
2023/09/22 10:05:46;;;;;;;1.92;1.10;;;;;;;;;;4974802;28;20116;-70
2023/09/22 10:08:12;;;;;;;1.42;1.20;;;;;;;;;;4969868;28;20039;-69
2023/09/22 10:10:38;;;;;;;2.88;1.10;;;;;;;;;;4973278;28;20041;-70
2023/09/22 10:13:04;;;;;;;3.30;1.10;;;;;;;;;;4969503;28;20219;-69
2023/09/22 10:15:50;;;;;;;5.90;1.30;;;;;;;;;;4969323;28;20043;-69
2023/09/22 10:18:17;;;;;;;3.55;1.08;;;;;;;;;;4976178;28;20022;-70
2023/09/22 10:20:46;;;;;;;3.90;1.20;;;;;;;;;;4972230;28;20053;-69
2023/09/22 10:23:17;;;;;;;1.10;0.90;;;;;;;;;;4973300;28;20042;-70
2023/09/22 10:26:03;;;;;;;12.02;3.03;;;;;;;;;;4976979;28;20069;-70
2023/09/22 10:28:28;;;;;;;2.15;1.00;;;;;;;;;;4969872;28;20047;-70
2023/09/22 10:30:54;;;;;;;1.98;0.90;;;;;;;;;;4972909;28;20742;-70
2023/09/22 10:33:25;;;;;;;0.90;0.80;;;;;;;;;;4975644;28;20037;-70
2023/09/22 10:35:51;;;;;;;2.65;1.08;;;;;;;;;;4977730;28;20022;-69
2023/09/22 10:38:19;;;;;;;3.05;1.10;;;;;;;;;;4972926;28;20034;-70
2023/09/22 10:41:00;;;;;;;3.75;1.15;;;;;;;;;;4977034;28;20046;-70
2023/09/22 10:43:26;;;;;;;1.40;0.93;;;;;;;;;;4979713;28;20094;-70
2023/09/22 10:45:52;;;;;;;4.35;1.73;;;;;;;;;;4984273;28;20058;-69
2023/09/22 10:48:18;;;;;;;3.63;1.10;;;;;;;;;;4979417;28;20058;-70
2023/09/22 10:50:48;;;;;;;3.22;1.00;;;;;;;;;;4978508;28;20110;-71
2023/09/22 10:53:14;;;;;;;1.52;0.90;;;;;;;;;;4976031;28;20089;-71
2023/09/22 10:55:44;;;;;;;3.50;0.95;;;;;;;;;;4979277;28;20050;-71
2023/09/22 10:58:12;;;;;;;1.80;1.00;;;;;;;;;;4975151;28;20043;-72
2023/09/22 11:00:40;;;;;;;2.70;1.08;;;;;;;;;;4975927;28;20057;-71
2023/09/22 11:03:08;;;;;;;4.70;1.02;;;;;;;;;;4972161;28;20019;-71
2023/09/22 11:05:37;;;;;;;2.63;0.90;;;;;;;;;;4974070;28;20528;-70
2023/09/22 11:08:18;;;;;;;4.93;1.20;;;;;;;;;;4963951;28;20102;-70
2023/09/22 11:10:53;;;;;;;1.60;1.08;;;;;;;;;;4965208;28;20039;-71
2023/09/22 11:13:19;;;;;;;6.55;1.45;;;;;;;;;;4971500;28;20045;-70
2023/09/22 11:15:50;;;;;;;2.30;1.30;;;;;;;;;;4953309;28;20043;-70
2023/09/22 11:18:22;;;;;;;2.50;1.30;;;;;;;;;;4973313;28;20026;-70
2023/09/22 11:20:48;;;;;;;3.87;1.20;;;;;;;;;;4997424;28;20021;-71
2023/09/22 11:23:15;;;;;;;2.47;1.10;;;;;;;;;;4973003;28;20313;-71
2023/09/22 11:25:41;;;;;;;2.03;0.95;;;;;;;;;;4974890;28;20035;-71
2023/09/22 11:28:06;;;;;;;2.80;1.05;;;;;;;;;;4974821;28;20046;-71
2023/09/22 11:30:33;;;;;;;3.40;1.25;;;;;;;;;;4975316;28;20491;-71
2023/09/22 11:32:59;;;;;;;3.42;1.45;;;;;;;;;;4964842;28;20503;-71
2023/09/22 11:35:41;;;;;;;1.92;1.00;;;;;;;;;;4965228;28;20107;-71
2023/09/22 11:38:26;;;;;;;2.97;1.10;;;;;;;;;;4971005;28;20065;-71
2023/09/22 11:41:04;;;;;;;2.03;1.27;;;;;;;;;;4973387;28;20113;-71
2023/09/22 11:43:30;;;;;;;3.60;1.20;;;;;;;;;;4974343;28;20030;-69
2023/09/22 11:46:13;;;;;;;2.55;1.10;;;;;;;;;;4977589;28;20125;-69
2023/09/22 11:49:05;;;;;;;2.03;1.30;;;;;;;;;;4973169;28;20070;-70
2023/09/22 11:51:40;;;;;;;3.40;1.20;;;;;;;;;;4975239;28;20133;-71
2023/09/22 11:54:06;;;;;;;6.15;2.15;;;;;;;;;;4974770;28;20104;-71
2023/09/22 11:56:32;;;;;;;4.53;1.35;;;;;;;;;;4975052;28;20029;-70
2023/09/22 11:59:08;;;;;;;2.47;1.10;;;;;;;;;;4975247;28;20039;-70
2023/09/22 12:01:33;;;;;;;1.45;1.35;;;;;;;;;;4974499;28;20027;-70
2023/09/22 12:03:59;;;;;;;2.03;1.35;;;;;;;;;;4977637;28;20034;-71
2023/09/22 12:06:24;;;;;;;2.15;1.00;;;;;;;;;;4974909;28;20524;-70
2023/09/22 12:08:51;;;;;;;1.98;1.10;;;;;;;;;;4977331;28;20073;-71
2023/09/22 12:11:17;;;;;;;3.25;1.10;;;;;;;;;;4980512;28;20133;-70
2023/09/22 12:13:43;;;;;;;5.40;1.50;;;;;;;;;;4985204;28;20645;-70
2023/09/22 12:16:08;;;;;;;5.47;1.90;;;;;;;;;;4970733;28;20038;-70
2023/09/22 12:18:34;;;;;;;3.55;1.60;;;;;;;;;;4977213;28;20551;-70
2023/09/22 12:20:59;;;;;;;3.30;1.95;;;;;;;;;;4970703;28;20022;-70
2023/09/22 12:23:25;;;;;;;3.33;1.50;;;;;;;;;;4971492;28;20057;-70
2023/09/22 12:25:52;;;;;;;5.55;2.10;;;;;;;;;;4976323;28;20433;-71
2023/09/22 12:28:18;;;;;;;3.47;2.05;;;;;;;;;;4976588;28;20035;-71
2023/09/22 12:30:44;;;;;;;2.47;1.70;;;;;;;;;;4975227;28;20038;-71
2023/09/22 12:33:10;;;;;;;6.10;1.40;;;;;;;;;;4973352;28;20041;-71
2023/09/22 12:35:35;;;;;;;2.35;1.60;;;;;;;;;;4970846;28;20033;-70
2023/09/22 12:38:00;;;;;;;3.38;1.25;;;;;;;;;;4976267;28;20038;-71
2023/09/22 12:40:26;;;;;;;2.30;1.30;;;;;;;;;;4977279;28;20595;-71
2023/09/22 12:42:52;;;;;;;5.88;1.23;;;;;;;;;;4975171;28;20042;-71
2023/09/22 12:45:19;;;;;;;2.45;1.40;;;;;;;;;;4974147;28;20035;-71
2023/09/22 12:47:45;;;;;;;2.47;1.75;;;;;;;;;;4998373;28;20456;-70
2023/09/22 12:50:10;;;;;;;2.22;1.20;;;;;;;;;;4979556;28;20736;-71
2023/09/22 12:52:37;;;;;;;3.03;1.10;;;;;;;;;;4978932;28;20129;-70
2023/09/22 12:55:04;;;;;;;3.35;0.90;;;;;;;;;;4975996;28;20038;-71
2023/09/22 12:57:29;;;;;;;3.80;1.25;;;;;;;;;;4977933;28;20038;-72
2023/09/22 12:59:57;;;;;;;1.95;1.15;;;;;;;;;;4981167;28;20026;-71
2023/09/22 13:02:22;;;;;;;2.65;1.02;;;;;;;;;;4983075;28;20527;-72
2023/09/22 13:04:48;;;;;;;3.53;1.27;;;;;;;;;;4977162;28;20052;-71
2023/09/22 13:07:15;;;;;;;2.17;1.20;;;;;;;;;;4994038;28;20050;-72
2023/09/22 13:09:40;;;;;;;0.85;0.73;;;;;;;;;;4981112;28;20048;-72
2023/09/22 13:12:06;;;;;;;4.00;1.10;;;;;;;;;;4979940;28;20030;-71
2023/09/22 13:14:31;;;;;;;3.67;1.10;;;;;;;;;;4974681;28;20567;-72
2023/09/22 13:16:57;;;;;;;2.33;1.10;;;;;;;;;;4974152;28;20046;-71
2023/09/22 13:19:22;;;;;;;3.00;1.10;;;;;;;;;;4974575;28;20121;-72
2023/09/22 13:21:49;;;;;;;2.38;1.20;;;;;;;;;;4975609;28;20065;-70
2023/09/22 13:24:15;;;;;;;3.08;1.45;;;;;;;;;;4977719;28;20034;-69
2023/09/22 13:26:41;;;;;;;1.85;1.08;;;;;;;;;;4975137;28;20063;-69
2023/09/22 13:29:06;;;;;;;1.20;0.90;;;;;;;;;;4974167;28;20101;-70
2023/09/22 13:31:31;;;;;;;2.13;1.92;;;;;;;;;;4975915;28;20066;-70
2023/09/22 13:33:57;;;;;;;5.28;1.20;;;;;;;;;;4974373;28;20034;-70
2023/09/22 13:36:22;;;;;;;3.38;0.98;;;;;;;;;;4980595;28;20030;-70
2023/09/22 13:38:48;;;;;;;1.33;1.00;;;;;;;;;;5006056;28;20030;-70
2023/09/22 13:41:14;;;;;;;1.73;1.00;;;;;;;;;;4975327;28;20611;-70
2023/09/22 13:43:41;;;;;;;1.88;1.10;;;;;;;;;;4969456;28;20053;-70
2023/09/22 13:46:13;;;;;;;1.60;1.05;;;;;;;;;;4980438;28;20046;-70
2023/09/22 13:48:40;;;;;;;1.33;1.00;;;;;;;;;;4968683;28;20051;-70
2023/09/22 13:51:06;;;;;;;2.00;1.00;;;;;;;;;;4972597;28;20081;-70
2023/09/22 13:53:35;;;;;;;2.00;1.10;;;;;;;;;;4977080;28;20034;-70
2023/09/22 13:56:01;;;;;;;0.95;0.80;;;;;;;;;;4972932;28;20038;-71
2023/09/22 13:58:28;;;;;;;2.10;0.85;;;;;;;;;;4977102;28;20093;-71
2023/09/22 14:00:53;;;;;;;3.08;1.20;;;;;;;;;;4981602;28;20121;-71
2023/09/22 14:03:20;;;;;;;2.08;1.00;;;;;;;;;;4978592;28;20460;-70
2023/09/22 14:05:46;;;;;;;2.78;1.05;;;;;;;;;;4969485;28;20034;-70
2023/09/22 14:08:14;;;;;;;1.83;1.05;;;;;;;;;;4970314;28;20050;-70
2023/09/22 14:10:39;;;;;;;2.05;1.00;;;;;;;;;;4975805;28;20038;-70
2023/09/22 14:13:05;;;;;;;1.55;1.02;;;;;;;;;;4970242;28;20046;-70
2023/09/22 14:15:30;;;;;;;2.67;1.20;;;;;;;;;;4969624;28;20149;-70
2023/09/22 14:17:56;;;;;;;3.03;1.27;;;;;;;;;;4974109;28;20538;-70
2023/09/22 14:20:22;;;;;;;3.42;1.40;;;;;;;;;;4975729;28;20061;-70
2023/09/22 14:22:48;;;;;;;3.08;1.40;;;;;;;;;;4973793;28;20511;-70
2023/09/22 14:25:14;;;;;;;3.65;1.45;;;;;;;;;;4967443;28;20042;-70
2023/09/22 14:27:39;;;;;;;2.88;1.60;;;;;;;;;;4967795;28;20433;-70
2023/09/22 14:30:07;;;;;;;2.65;1.48;;;;;;;;;;4975649;28;20408;-70
2023/09/22 14:32:36;;;;;;;4.55;2.10;;;;;;;;;;4978596;28;20027;-70
2023/09/22 14:35:02;;;;;;;4.85;1.80;;;;;;;;;;4967658;28;20030;-70
2023/09/22 14:37:27;;;;;;;4.13;1.77;;;;;;;;;;4967773;28;20043;-70
2023/09/22 14:39:56;;;;;;;3.40;2.03;;;;;;;;;;4980010;28;20046;-70
2023/09/22 14:42:23;;;;;;;4.32;2.00;;;;;;;;;;4971311;28;20042;-70